createdAt,value
2022-08-05T03:08:42.831Z,58.86
2022-08-05T03:11:55.382Z,60.91
2022-08-05T03:14:14.362Z,58.34
2022-08-05T03:16:43.856Z,57.86
2022-08-05T03:19:20.331Z,55.62
2022-08-05T03:22:01.756Z,55.23
2022-08-05T03:24:33.778Z,56.99
2022-08-05T03:27:04.016Z,57.58
2022-08-05T03:29:44.729Z,60.14
2022-08-05T03:32:30.648Z,60.00
2022-08-05T03:34:59.862Z,56.68
2022-08-05T03:37:29.864Z,54.21
2022-08-05T03:40:12.052Z,55.66
2022-08-05T03:42:52.418Z,56.97
2022-08-05T03:45:23.555Z,55.91
2022-08-05T03:47:56.836Z,55.05
2022-08-05T03:50:26.113Z,51.99
2022-08-05T03:54:59.318Z,54.87
2022-08-05T03:56:09.257Z,51.91
2022-08-05T03:58:42.050Z,49.80
2022-08-05T04:01:13.691Z,50.24
2022-08-05T04:04:09.098Z,51.66
2022-08-05T04:06:31.878Z,51.76
2022-08-05T04:09:01.799Z,48.61
2022-08-05T04:11:47.441Z,49.19
2022-08-05T04:14:29.891Z,45.76
2022-08-05T04:17:02.910Z,53.00
2022-08-05T04:19:32.142Z,49.17
2022-08-05T04:22:09.849Z,52.04
2022-08-05T04:24:52.311Z,48.22
2022-08-05T04:27:33.173Z,46.14
2022-08-05T04:30:11.628Z,46.82
2022-08-05T04:32:40.634Z,45.41
2022-08-05T04:35:17.763Z,48.31
2022-08-05T04:38:02.346Z,47.09
2022-08-05T04:40:38.576Z,51.67
2022-08-05T04:43:16.629Z,49.91
2022-08-05T04:45:48.497Z,45.93
2022-08-05T04:48:27.216Z,45.82
2022-08-05T04:51:03.574Z,44.75
2022-08-05T04:53:40.822Z,46.84
2022-08-05T04:56:32.957Z,45.61
2022-08-05T04:59:00.047Z,44.32
2022-08-05T05:02:35.593Z,44.42
2022-08-05T05:04:38.298Z,45.15
2022-08-05T05:07:15.943Z,45.25
2022-08-05T05:09:46.530Z,44.34
2022-08-05T05:12:15.568Z,44.76
2022-08-05T05:14:50.608Z,45.06
2022-08-05T05:17:24.204Z,49.14
2022-08-05T05:19:56.797Z,43.12
2022-08-05T05:22:26.880Z,44.68
2022-08-05T05:24:59.781Z,46.76
2022-08-05T05:27:41.762Z,44.82
2022-08-05T05:30:30.461Z,42.04
2022-08-05T05:34:01.945Z,42.02
2022-08-05T05:37:10.151Z,46.32
2022-08-05T05:40:18.742Z,43.68
2022-08-05T05:43:56.646Z,42.84
2022-08-05T05:46:18.839Z,42.79
2022-08-05T05:49:27.366Z,42.03
2022-08-05T05:52:38.143Z,42.48
2022-08-05T05:55:52.531Z,41.38
2022-08-05T05:59:09.879Z,40.44
2022-08-05T06:02:32.508Z,40.54
2022-08-05T06:05:46.163Z,41.57
2022-08-05T06:09:03.911Z,41.18
2022-08-05T06:12:12.528Z,44.31
2022-08-05T06:14:46.013Z,42.87
2022-08-05T06:17:22.372Z,43.19
2022-08-05T06:20:04.461Z,40.72
2022-08-05T06:22:34.458Z,40.94
2022-08-05T06:25:25.118Z,44.87
2022-08-05T06:28:12.287Z,44.47
2022-08-05T06:30:42.110Z,43.30
2022-08-05T06:33:11.786Z,41.62
2022-08-05T06:36:07.538Z,39.77
2022-08-05T06:38:37.220Z,41.03
2022-08-05T06:41:08.261Z,39.36
2022-08-05T06:43:58.695Z,40.92
2022-08-05T06:46:30.129Z,44.38
2022-08-05T06:49:01.271Z,43.85
2022-08-05T06:51:30.964Z,43.96
2022-08-05T06:54:01.922Z,44.21
2022-08-05T06:56:33.399Z,45.27
2022-08-05T06:59:09.447Z,44.20
2022-08-05T07:01:42.327Z,45.43
2022-08-05T07:04:14.092Z,44.02
2022-08-05T07:06:45.775Z,42.17
2022-08-05T07:09:21.492Z,42.62
2022-08-05T07:11:54.032Z,44.18
2022-08-05T07:14:41.583Z,43.11
2022-08-05T07:18:00.930Z,45.63
2022-08-05T07:22:52.510Z,45.83
2022-08-05T07:25:22.675Z,45.59
2022-08-05T07:28:17.205Z,45.13
2022-08-05T07:30:50.274Z,47.95
2022-08-05T07:33:35.228Z,47.36
2022-08-05T07:36:20.397Z,48.38
2022-08-05T07:40:04.591Z,47.22
2022-08-05T07:42:58.404Z,48.53
2022-08-05T07:46:20.757Z,48.62
2022-08-05T07:49:33.316Z,50.36
2022-08-05T07:52:52.007Z,48.25
2022-08-05T07:56:05.426Z,47.70
2022-08-05T07:59:14.430Z,48.18
2022-08-05T08:02:22.827Z,50.11
2022-08-05T08:05:39.453Z,52.08
2022-08-05T08:08:48.208Z,50.81
2022-08-05T08:12:00.129Z,50.10
2022-08-05T08:15:15.167Z,50.05
2022-08-05T08:18:25.468Z,52.21
2022-08-05T08:21:34.982Z,51.19
2022-08-05T08:24:51.498Z,52.69
2022-08-05T08:28:00.520Z,51.15
2022-08-05T08:31:09.044Z,52.36
2022-08-05T08:34:18.770Z,53.63
2022-08-05T08:37:28.062Z,51.97
2022-08-05T08:40:36.650Z,52.36
2022-08-05T08:45:24.434Z,52.28
2022-08-05T08:47:47.668Z,53.82
2022-08-05T08:51:04.209Z,55.93
2022-08-05T08:54:10.233Z,56.57
2022-08-05T08:57:22.688Z,57.34
2022-08-05T09:00:31.126Z,58.29
2022-08-05T09:03:44.979Z,58.54
2022-08-05T09:06:53.836Z,58.16
2022-08-05T09:10:04.135Z,60.07
2022-08-05T09:13:13.758Z,62.31
